Time;durP1;ratioP1;P1;durP2;ratioP2;P2;SDS_P1;SDS_P2;PMS_P1;PMS_P2;Temp;Humidity;BMP_temperature;BMP_pressure;BME280_temperature;BME280_humidity;BME280_pressure;Samples;Min_cycle;Max_cycle;Signal;HPM_P1;HPM_P2
2021/04/29 00:00:30;;;;;;;7.10;2.70;;;;;;;;;;4967765;28;20506;-64
2021/04/29 00:02:56;;;;;;;9.07;2.75;;;;;;;;;;4966558;28;20391;-63
2021/04/29 00:05:22;;;;;;;3.70;2.58;;;;;;;;;;4951801;28;20121;-63
2021/04/29 00:07:47;;;;;;;3.53;2.28;;;;;;;;;;4968650;28;20061;-63
2021/04/29 00:10:14;;;;;;;3.97;2.72;;;;;;;;;;4967016;28;20706;-63
2021/04/29 00:12:39;;;;;;;11.75;3.35;;;;;;;;;;4973301;28;20042;-63
2021/04/29 00:15:05;;;;;;;7.38;3.28;;;;;;;;;;4966371;28;20079;-63
2021/04/29 00:17:31;;;;;;;5.60;2.92;;;;;;;;;;4971035;28;20023;-64
2021/04/29 00:19:56;;;;;;;3.90;3.05;;;;;;;;;;4971910;28;20534;-63
2021/04/29 00:22:22;;;;;;;3.85;3.00;;;;;;;;;;4971233;28;20018;-64
2021/04/29 00:24:47;;;;;;;5.93;3.92;;;;;;;;;;4970957;28;20799;-63
2021/04/29 00:27:12;;;;;;;12.55;3.20;;;;;;;;;;4970898;28;20027;-64
2021/04/29 00:29:37;;;;;;;4.72;2.53;;;;;;;;;;4977095;28;20038;-63
2021/04/29 00:32:03;;;;;;;4.72;2.97;;;;;;;;;;4980355;28;20033;-63
2021/04/29 00:34:28;;;;;;;6.28;3.17;;;;;;;;;;4971330;28;20031;-63
2021/04/29 00:36:53;;;;;;;5.40;3.25;;;;;;;;;;4973440;28;20038;-63
2021/04/29 00:39:19;;;;;;;11.35;4.03;;;;;;;;;;4972724;28;20462;-63
2021/04/29 00:41:44;;;;;;;7.95;2.28;;;;;;;;;;4970739;28;20022;-63
2021/04/29 00:44:09;;;;;;;6.20;2.63;;;;;;;;;;4970972;28;20037;-63
2021/04/29 00:46:35;;;;;;;3.72;1.88;;;;;;;;;;4969210;28;20042;-64
2021/04/29 00:49:00;;;;;;;6.68;2.25;;;;;;;;;;4975515;28;20089;-63
2021/04/29 00:51:26;;;;;;;4.18;2.05;;;;;;;;;;4969989;28;20018;-64
2021/04/29 00:53:52;;;;;;;9.05;3.80;;;;;;;;;;4969386;28;20047;-63
2021/04/29 00:56:18;;;;;;;3.90;1.27;;;;;;;;;;4972927;28;20031;-64
2021/04/29 00:58:43;;;;;;;3.10;2.22;;;;;;;;;;4972601;28;20482;-63
2021/04/29 01:01:09;;;;;;;4.28;3.25;;;;;;;;;;4972573;28;20122;-63
2021/04/29 01:03:43;;;;;;;3.88;2.72;;;;;;;;;;4971410;28;20077;-64
2021/04/29 01:06:14;;;;;;;4.25;2.17;;;;;;;;;;4967641;28;20026;-64
2021/04/29 01:08:49;;;;;;;3.97;2.75;;;;;;;;;;4968021;28;20077;-64
2021/04/29 01:11:20;;;;;;;7.97;2.28;;;;;;;;;;4969335;28;20026;-64
2021/04/29 01:13:50;;;;;;;7.47;3.08;;;;;;;;;;4971868;28;20535;-62
2021/04/29 01:16:20;;;;;;;7.33;2.40;;;;;;;;;;4968518;28;20772;-64
2021/04/29 01:18:47;;;;;;;2.60;2.13;;;;;;;;;;4960702;28;20151;-64
2021/04/29 01:21:14;;;;;;;5.18;3.63;;;;;;;;;;4971191;28;20035;-64
2021/04/29 01:23:40;;;;;;;3.42;2.45;;;;;;;;;;4957798;28;20047;-63
2021/04/29 01:26:11;;;;;;;6.85;4.10;;;;;;;;;;4927756;29;20047;-64
2021/04/29 01:28:37;;;;;;;6.60;4.93;;;;;;;;;;4921119;29;20047;-64
2021/04/29 01:31:02;;;;;;;6.57;3.67;;;;;;;;;;4922444;29;20483;-65
2021/04/29 01:33:28;;;;;;;3.17;2.35;;;;;;;;;;4921520;29;20497;-64
2021/04/29 01:35:54;;;;;;;5.85;3.45;;;;;;;;;;4918744;29;20653;-64
2021/04/29 01:38:19;;;;;;;4.35;2.78;;;;;;;;;;4920198;29;20161;-61
2021/04/29 01:40:45;;;;;;;10.10;4.30;;;;;;;;;;4919164;29;20028;-64
2021/04/29 01:43:10;;;;;;;3.80;3.35;;;;;;;;;;4922073;29;20051;-64
2021/04/29 01:45:36;;;;;;;4.57;3.65;;;;;;;;;;4916293;29;20548;-65
2021/04/29 01:48:02;;;;;;;11.13;3.05;;;;;;;;;;4922465;29;20039;-64
2021/04/29 01:50:29;;;;;;;4.10;2.30;;;;;;;;;;4918811;29;20122;-64
2021/04/29 01:52:55;;;;;;;6.72;2.92;;;;;;;;;;4917059;29;20028;-64
2021/04/29 01:55:23;;;;;;;3.95;2.28;;;;;;;;;;4920858;29;20042;-64
2021/04/29 01:57:48;;;;;;;3.92;3.47;;;;;;;;;;4920095;29;20038;-65
2021/04/29 02:00:14;;;;;;;7.38;3.20;;;;;;;;;;4919049;29;20646;-64
2021/04/29 02:02:39;;;;;;;4.85;2.33;;;;;;;;;;4919876;29;20024;-64
2021/04/29 02:05:04;;;;;;;3.85;2.47;;;;;;;;;;4922720;29;20028;-65
2021/04/29 02:07:30;;;;;;;6.43;2.30;;;;;;;;;;4920469;29;20062;-64
2021/04/29 02:09:55;;;;;;;20.92;4.05;;;;;;;;;;4919286;29;20134;-65
2021/04/29 02:12:22;;;;;;;4.38;2.80;;;;;;;;;;4923190;29;20036;-65
2021/04/29 02:15:00;;;;;;;4.68;2.08;;;;;;;;;;4921674;29;20137;-66
2021/04/29 02:17:28;;;;;;;6.32;3.10;;;;;;;;;;4922117;29;20020;-65
2021/04/29 02:19:55;;;;;;;5.90;3.03;;;;;;;;;;4919111;29;20149;-65
2021/04/29 02:22:22;;;;;;;4.93;2.78;;;;;;;;;;4921436;29;20039;-64
2021/04/29 02:24:48;;;;;;;3.05;2.28;;;;;;;;;;4921772;29;20032;-64
2021/04/29 02:27:13;;;;;;;17.73;4.43;;;;;;;;;;4922702;29;20024;-65
2021/04/29 02:29:42;;;;;;;3.80;3.40;;;;;;;;;;4923200;29;20405;-64
2021/04/29 02:32:07;;;;;;;4.15;3.10;;;;;;;;;;4923831;29;20052;-65
2021/04/29 02:34:33;;;;;;;6.43;3.00;;;;;;;;;;4922363;29;20059;-65
2021/04/29 02:36:58;;;;;;;4.45;2.40;;;;;;;;;;4921899;29;20515;-65
2021/04/29 02:39:24;;;;;;;11.25;3.35;;;;;;;;;;4926158;29;20016;-65
2021/04/29 02:41:49;;;;;;;12.82;2.90;;;;;;;;;;4922576;29;20028;-64
2021/04/29 02:44:14;;;;;;;6.45;2.28;;;;;;;;;;4929037;29;20409;-65
2021/04/29 02:46:40;;;;;;;2.70;2.17;;;;;;;;;;4923029;29;20043;-64
2021/04/29 02:49:06;;;;;;;4.32;2.30;;;;;;;;;;4917906;29;20511;-65
2021/04/29 02:51:34;;;;;;;3.47;1.90;;;;;;;;;;4920675;29;20067;-65
2021/04/29 02:53:59;;;;;;;2.90;2.55;;;;;;;;;;4921704;29;20032;-65
2021/04/29 02:56:24;;;;;;;3.17;2.10;;;;;;;;;;4920388;29;20124;-65
2021/04/29 02:58:50;;;;;;;3.35;2.38;;;;;;;;;;4926412;29;20485;-65
2021/04/29 03:01:16;;;;;;;5.18;3.35;;;;;;;;;;4918114;29;20105;-65
2021/04/29 03:03:42;;;;;;;4.65;2.80;;;;;;;;;;4921822;29;20028;-65
2021/04/29 03:06:07;;;;;;;4.80;2.70;;;;;;;;;;4917180;29;20020;-64
2021/04/29 03:08:33;;;;;;;3.45;2.55;;;;;;;;;;4917958;29;20447;-64
2021/04/29 03:10:59;;;;;;;3.42;2.08;;;;;;;;;;4922444;29;20106;-64
2021/04/29 03:13:24;;;;;;;6.57;2.40;;;;;;;;;;4927412;29;20023;-65
2021/04/29 03:15:50;;;;;;;2.97;2.30;;;;;;;;;;4919350;29;20107;-64
2021/04/29 03:18:15;;;;;;;4.03;1.92;;;;;;;;;;4919045;29;20124;-65
2021/04/29 03:20:41;;;;;;;3.33;1.83;;;;;;;;;;4918851;29;20108;-64
2021/04/29 03:23:07;;;;;;;8.40;2.50;;;;;;;;;;4920874;29;20035;-65
2021/04/29 03:25:32;;;;;;;3.53;1.77;;;;;;;;;;4922366;29;20473;-65
2021/04/29 03:27:58;;;;;;;4.55;2.83;;;;;;;;;;4920468;29;20024;-65
2021/04/29 03:30:23;;;;;;;3.30;2.22;;;;;;;;;;4919692;29;20112;-65
2021/04/29 03:32:48;;;;;;;13.93;2.08;;;;;;;;;;4922392;29;20028;-65
2021/04/29 03:35:14;;;;;;;1.60;1.17;;;;;;;;;;4920715;29;20433;-65
2021/04/29 03:37:40;;;;;;;4.97;2.33;;;;;;;;;;4918095;29;20536;-65
2021/04/29 03:40:05;;;;;;;3.13;2.45;;;;;;;;;;4918463;29;20078;-65
2021/04/29 03:42:31;;;;;;;4.28;2.85;;;;;;;;;;4918026;29;20477;-64
2021/04/29 03:44:56;;;;;;;2.22;1.63;;;;;;;;;;4920538;29;20462;-65
2021/04/29 03:47:22;;;;;;;4.85;2.17;;;;;;;;;;4920583;29;20040;-64
2021/04/29 03:49:47;;;;;;;2.33;1.65;;;;;;;;;;4928395;29;20485;-64
2021/04/29 03:52:12;;;;;;;3.78;1.63;;;;;;;;;;4921156;29;20036;-65
2021/04/29 03:54:38;;;;;;;5.32;3.58;;;;;;;;;;4925216;29;20031;-64
2021/04/29 03:57:03;;;;;;;4.28;1.92;;;;;;;;;;4924226;29;20034;-64
2021/04/29 03:59:28;;;;;;;4.55;1.90;;;;;;;;;;4923927;29;20102;-64
2021/04/29 04:01:54;;;;;;;5.63;2.17;;;;;;;;;;4921089;29;20051;-65
2021/04/29 04:04:19;;;;;;;5.28;3.13;;;;;;;;;;4925145;29;20038;-64
2021/04/29 04:06:45;;;;;;;4.22;2.08;;;;;;;;;;4925247;29;20408;-64
2021/04/29 04:09:10;;;;;;;6.15;3.08;;;;;;;;;;4922219;29;20139;-64
2021/04/29 04:11:35;;;;;;;3.92;2.05;;;;;;;;;;4925035;29;20052;-64
2021/04/29 04:14:00;;;;;;;4.47;1.73;;;;;;;;;;4922797;29;20476;-64
2021/04/29 04:16:26;;;;;;;3.03;1.30;;;;;;;;;;4921947;29;20047;-64
2021/04/29 04:18:52;;;;;;;5.53;1.92;;;;;;;;;;4924960;29;20031;-64
2021/04/29 04:21:17;;;;;;;6.50;2.72;;;;;;;;;;4922670;29;20039;-64
2021/04/29 04:23:42;;;;;;;3.08;1.60;;;;;;;;;;4926940;29;20028;-64
2021/04/29 04:26:08;;;;;;;3.28;1.83;;;;;;;;;;4922720;29;20071;-64
2021/04/29 04:28:33;;;;;;;3.50;1.67;;;;;;;;;;4925265;29;20137;-63
2021/04/29 04:30:58;;;;;;;7.00;2.67;;;;;;;;;;4926335;29;20042;-64
2021/04/29 04:33:24;;;;;;;4.80;3.00;;;;;;;;;;4926760;29;20114;-63
2021/04/29 04:35:49;;;;;;;2.90;2.05;;;;;;;;;;4924736;29;20075;-64
2021/04/29 04:38:15;;;;;;;7.15;2.53;;;;;;;;;;4922876;29;20110;-64
2021/04/29 04:40:40;;;;;;;4.20;1.95;;;;;;;;;;4920882;29;20059;-64
2021/04/29 04:43:05;;;;;;;1.67;1.20;;;;;;;;;;4922306;29;20039;-64
2021/04/29 04:45:31;;;;;;;6.55;2.75;;;;;;;;;;4923622;29;20449;-64
2021/04/29 04:47:56;;;;;;;3.67;3.15;;;;;;;;;;4924386;29;20043;-64
2021/04/29 04:50:21;;;;;;;6.90;2.38;;;;;;;;;;4925396;29;20122;-64
2021/04/29 04:52:47;;;;;;;4.25;2.20;;;;;;;;;;4925587;29;20040;-64
2021/04/29 04:55:12;;;;;;;5.53;3.05;;;;;;;;;;4922474;29;20420;-64
2021/04/29 04:57:38;;;;;;;10.60;3.55;;;;;;;;;;4924555;29;20031;-64
2021/04/29 05:00:04;;;;;;;8.98;8.07;;;;;;;;;;4925350;29;20035;-62
2021/04/29 05:02:30;;;;;;;9.20;7.43;;;;;;;;;;4919359;29;20568;-62
2021/04/29 05:04:55;;;;;;;7.53;6.72;;;;;;;;;;4923487;29;20031;-62
2021/04/29 05:07:20;;;;;;;9.13;5.80;;;;;;;;;;4921740;29;20043;-62
2021/04/29 05:09:46;;;;;;;7.97;5.70;;;;;;;;;;4922486;29;20387;-62
2021/04/29 05:12:11;;;;;;;5.30;4.32;;;;;;;;;;4924825;29;20102;-62
2021/04/29 05:14:36;;;;;;;4.60;2.63;;;;;;;;;;4926033;29;20059;-63
2021/04/29 05:17:02;;;;;;;16.98;3.80;;;;;;;;;;4921932;29;20028;-62
2021/04/29 05:19:27;;;;;;;6.22;2.92;;;;;;;;;;4925452;29;20186;-62
2021/04/29 05:21:53;;;;;;;3.10;2.33;;;;;;;;;;4924774;29;20090;-66
2021/04/29 05:24:18;;;;;;;4.60;2.55;;;;;;;;;;4921874;29;20359;-62
2021/04/29 05:26:45;;;;;;;5.95;3.40;;;;;;;;;;4924655;29;20032;-62
2021/04/29 05:29:10;;;;;;;4.93;2.90;;;;;;;;;;4924755;29;20054;-61
2021/04/29 05:31:35;;;;;;;5.25;2.17;;;;;;;;;;4919764;29;20493;-61
2021/04/29 05:34:02;;;;;;;5.13;2.78;;;;;;;;;;4923700;29;20032;-61
2021/04/29 05:36:27;;;;;;;4.07;2.20;;;;;;;;;;4921979;29;20032;-61
2021/04/29 05:38:52;;;;;;;7.32;3.00;;;;;;;;;;4922285;29;20102;-61
2021/04/29 05:41:18;;;;;;;4.10;2.70;;;;;;;;;;4924088;29;20016;-61
2021/04/29 05:43:43;;;;;;;4.78;2.53;;;;;;;;;;4919480;29;20491;-61
2021/04/29 05:46:08;;;;;;;6.03;3.10;;;;;;;;;;4921366;29;20024;-62
2021/04/29 05:48:34;;;;;;;6.68;2.42;;;;;;;;;;4917585;29;20028;-62
2021/04/29 05:50:59;;;;;;;3.45;2.00;;;;;;;;;;4919473;29;20402;-61
2021/04/29 05:53:25;;;;;;;4.43;2.20;;;;;;;;;;4922158;29;20063;-62
2021/04/29 05:55:50;;;;;;;6.32;1.70;;;;;;;;;;4921476;29;20362;-61
2021/04/29 05:58:15;;;;;;;2.05;1.67;;;;;;;;;;4921741;29;20052;-61
2021/04/29 06:00:40;;;;;;;12.18;2.70;;;;;;;;;;4921083;29;20058;-61
2021/04/29 06:03:06;;;;;;;4.03;2.78;;;;;;;;;;4920981;29;20103;-61
2021/04/29 06:05:31;;;;;;;3.45;1.58;;;;;;;;;;4921789;29;20063;-61
2021/04/29 06:07:57;;;;;;;2.22;1.83;;;;;;;;;;4922529;29;20060;-62
2021/04/29 06:10:23;;;;;;;7.68;3.13;;;;;;;;;;4923554;29;20032;-62
2021/04/29 06:12:48;;;;;;;4.20;2.95;;;;;;;;;;4919977;29;20115;-62
2021/04/29 06:15:14;;;;;;;9.10;3.50;;;;;;;;;;4922908;29;20039;-61
2021/04/29 06:17:39;;;;;;;6.53;2.33;;;;;;;;;;4922304;29;20154;-62
2021/04/29 06:20:05;;;;;;;2.53;1.70;;;;;;;;;;4922154;29;20032;-62
2021/04/29 06:22:30;;;;;;;2.55;2.30;;;;;;;;;;4921098;29;20107;-61
2021/04/29 06:24:55;;;;;;;3.42;2.38;;;;;;;;;;4924855;29;20066;-62
2021/04/29 06:27:20;;;;;;;15.00;2.88;;;;;;;;;;4923329;29;20544;-62
2021/04/29 06:29:46;;;;;;;2.67;1.80;;;;;;;;;;4923231;29;20461;-62
2021/04/29 06:32:12;;;;;;;5.90;4.45;;;;;;;;;;4923551;29;20505;-62
2021/04/29 06:34:38;;;;;;;10.57;6.43;;;;;;;;;;4921564;29;20027;-62
2021/04/29 06:37:03;;;;;;;13.57;9.07;;;;;;;;;;4922333;29;20519;-62
2021/04/29 06:39:29;;;;;;;14.82;9.40;;;;;;;;;;4921786;29;20052;-62
2021/04/29 06:41:54;;;;;;;15.88;12.32;;;;;;;;;;4921448;29;20500;-62
2021/04/29 06:44:19;;;;;;;24.80;7.47;;;;;;;;;;4921800;29;20051;-62
2021/04/29 06:46:45;;;;;;;3.97;3.50;;;;;;;;;;4925456;29;20047;-62
2021/04/29 06:49:10;;;;;;;4.82;2.15;;;;;;;;;;4923061;29;20575;-62
2021/04/29 06:51:36;;;;;;;6.25;3.40;;;;;;;;;;4920251;29;20074;-62
2021/04/29 06:54:01;;;;;;;7.93;2.92;;;;;;;;;;4919072;29;20035;-62
2021/04/29 06:56:27;;;;;;;13.80;9.02;;;;;;;;;;4925902;29;20039;-62
2021/04/29 06:58:52;;;;;;;18.75;10.68;;;;;;;;;;4922238;29;20039;-62
2021/04/29 07:01:17;;;;;;;17.13;9.88;;;;;;;;;;4922694;29;20439;-62
2021/04/29 07:03:42;;;;;;;18.05;12.38;;;;;;;;;;4924701;29;20151;-62
2021/04/29 07:06:08;;;;;;;15.80;12.30;;;;;;;;;;4919953;29;20020;-62
2021/04/29 07:08:33;;;;;;;8.88;7.93;;;;;;;;;;4920490;29;20048;-62
2021/04/29 07:10:59;;;;;;;16.88;11.57;;;;;;;;;;4917004;29;20091;-62
2021/04/29 07:13:24;;;;;;;26.80;20.98;;;;;;;;;;4924612;29;20515;-62
2021/04/29 07:15:49;;;;;;;18.45;11.93;;;;;;;;;;4922400;29;20036;-62
2021/04/29 07:18:14;;;;;;;9.48;6.22;;;;;;;;;;4917189;29;20038;-62
2021/04/29 07:20:40;;;;;;;10.40;7.28;;;;;;;;;;4907386;29;20090;-63
2021/04/29 07:23:06;;;;;;;17.80;10.30;;;;;;;;;;4917639;29;20118;-63
2021/04/29 07:25:32;;;;;;;18.67;15.75;;;;;;;;;;4918963;29;20039;-62
2021/04/29 07:27:57;;;;;;;12.00;9.65;;;;;;;;;;4917484;29;20894;-63
2021/04/29 07:30:23;;;;;;;10.32;6.95;;;;;;;;;;4917806;29;20042;-63
2021/04/29 07:32:48;;;;;;;10.15;5.05;;;;;;;;;;4919690;29;20504;-63
2021/04/29 07:35:14;;;;;;;10.38;3.85;;;;;;;;;;4918067;29;20055;-62
2021/04/29 07:37:39;;;;;;;6.18;3.90;;;;;;;;;;4920132;29;20575;-63
2021/04/29 07:40:05;;;;;;;11.90;3.35;;;;;;;;;;4916281;29;20484;-39
2021/04/29 07:42:30;;;;;;;9.10;7.75;;;;;;;;;;4919995;29;20108;-49
2021/04/29 07:44:55;;;;;;;5.13;4.05;;;;;;;;;;4916493;29;20028;-55
2021/04/29 07:47:21;;;;;;;4.82;3.80;;;;;;;;;;4916769;29;20162;-57
2021/04/29 07:49:46;;;;;;;6.85;4.45;;;;;;;;;;4917803;29;20118;-56
2021/04/29 07:52:11;;;;;;;14.35;5.00;;;;;;;;;;4913639;29;20040;-54
2021/04/29 07:54:37;;;;;;;10.57;3.80;;;;;;;;;;4916387;29;20032;-55
2021/04/29 07:57:02;;;;;;;5.18;3.25;;;;;;;;;;4915323;29;20128;-55
2021/04/29 07:59:29;;;;;;;4.45;3.65;;;;;;;;;;4914931;29;20074;-55
2021/04/29 08:01:55;;;;;;;4.75;3.58;;;;;;;;;;4916657;29;20025;-49
2021/04/29 08:04:20;;;;;;;7.45;3.50;;;;;;;;;;4914469;29;20054;-57
2021/04/29 08:06:46;;;;;;;8.68;2.00;;;;;;;;;;4916760;29;20024;-55
2021/04/29 08:09:11;;;;;;;6.47;3.50;;;;;;;;;;4917022;29;20051;-55
2021/04/29 08:11:36;;;;;;;4.43;2.40;;;;;;;;;;4916284;29;20520;-54
2021/04/29 08:14:02;;;;;;;3.10;1.83;;;;;;;;;;4915614;29;20102;-52
2021/04/29 08:16:27;;;;;;;9.52;2.30;;;;;;;;;;4922731;29;20039;-56
2021/04/29 08:18:53;;;;;;;3.33;2.15;;;;;;;;;;4924281;29;20056;-55
2021/04/29 08:21:18;;;;;;;12.85;3.42;;;;;;;;;;4919251;29;20039;-53
2021/04/29 08:23:44;;;;;;;3.10;2.47;;;;;;;;;;4922894;29;20035;-54
2021/04/29 08:26:09;;;;;;;4.47;2.40;;;;;;;;;;4917959;29;20038;-54
2021/04/29 08:28:34;;;;;;;3.97;1.92;;;;;;;;;;4920687;29;20031;-55
2021/04/29 08:31:00;;;;;;;6.38;3.00;;;;;;;;;;4916897;29;20553;-56
2021/04/29 08:33:25;;;;;;;3.95;2.00;;;;;;;;;;4917742;29;20046;-55
2021/04/29 08:35:50;;;;;;;6.80;2.92;;;;;;;;;;4921139;29;20087;-57
2021/04/29 08:38:16;;;;;;;4.55;2.22;;;;;;;;;;4924259;29;20034;-56
2021/04/29 08:40:41;;;;;;;5.75;2.42;;;;;;;;;;4922802;29;20030;-55
2021/04/29 08:43:07;;;;;;;3.42;1.88;;;;;;;;;;4921166;29;20028;-53
2021/04/29 08:45:33;;;;;;;7.45;2.50;;;;;;;;;;4924586;29;20027;-54
2021/04/29 08:47:59;;;;;;;7.97;2.42;;;;;;;;;;4917778;29;20046;-57
2021/04/29 08:50:25;;;;;;;5.70;1.58;;;;;;;;;;4922471;29;20028;-57
2021/04/29 08:52:50;;;;;;;3.50;1.30;;;;;;;;;;4924489;29;20115;-56
2021/04/29 08:55:17;;;;;;;5.20;1.35;;;;;;;;;;4920343;29;20618;-58
2021/04/29 08:57:43;;;;;;;2.45;1.50;;;;;;;;;;4921428;29;20036;-57
2021/04/29 09:00:09;;;;;;;4.03;1.55;;;;;;;;;;4922003;29;20139;-55
2021/04/29 09:02:35;;;;;;;2.40;1.67;;;;;;;;;;4923044;29;20055;-53
2021/04/29 09:05:21;;;;;;;14.48;2.83;;;;;;;;;;4919442;29;20031;-53
2021/04/29 09:08:01;;;;;;;9.65;2.75;;;;;;;;;;4920593;29;20066;-55
2021/04/29 09:10:34;;;;;;;10.30;4.33;;;;;;;;;;4923098;29;20533;-56
2021/04/29 09:13:00;;;;;;;7.07;3.40;;;;;;;;;;4920809;29;20258;-54
2021/04/29 09:15:26;;;;;;;4.47;2.50;;;;;;;;;;4922231;29;20126;-55
2021/04/29 09:18:10;;;;;;;16.83;3.05;;;;;;;;;;4921377;29;20111;-52
2021/04/29 09:20:48;;;;;;;7.65;3.63;;;;;;;;;;4920461;29;20152;-54
2021/04/29 09:23:18;;;;;;;11.90;4.28;;;;;;;;;;4920676;29;20027;-54
2021/04/29 09:25:50;;;;;;;6.10;3.17;;;;;;;;;;4919229;29;20047;-54
2021/04/29 09:28:16;;;;;;;3.47;2.40;;;;;;;;;;4920716;29;20032;-54
2021/04/29 09:30:43;;;;;;;3.90;2.25;;;;;;;;;;4920691;29;20145;-53
2021/04/29 09:33:08;;;;;;;14.85;7.10;;;;;;;;;;4922135;29;20063;-55
2021/04/29 09:35:37;;;;;;;11.50;7.30;;;;;;;;;;4920300;29;20043;-55
2021/04/29 09:38:09;;;;;;;6.43;4.60;;;;;;;;;;4922576;29;20047;-53
2021/04/29 09:40:38;;;;;;;67.30;5.15;;;;;;;;;;4922340;29;20032;-55
2021/04/29 09:43:04;;;;;;;13.43;4.60;;;;;;;;;;4919323;29;20122;-52
2021/04/29 09:45:34;;;;;;;5.63;3.80;;;;;;;;;;4917589;29;20097;-55
2021/04/29 09:48:02;;;;;;;10.57;4.22;;;;;;;;;;4920930;29;20160;-55
2021/04/29 09:50:29;;;;;;;9.02;3.33;;;;;;;;;;4921352;29;20043;-55
2021/04/29 09:53:01;;;;;;;13.48;3.30;;;;;;;;;;4921179;29;20115;-54
2021/04/29 09:55:27;;;;;;;3.05;2.03;;;;;;;;;;4923709;29;20465;-53
2021/04/29 09:58:17;;;;;;;8.15;4.05;;;;;;;;;;4919963;29;20618;-54
2021/04/29 10:00:45;;;;;;;7.60;3.60;;;;;;;;;;4919341;29;20531;-54
2021/04/29 10:03:11;;;;;;;10.73;3.97;;;;;;;;;;4921118;29;20031;-56
2021/04/29 10:05:39;;;;;;;3.67;1.98;;;;;;;;;;4921437;29;20027;-54
2021/04/29 10:08:06;;;;;;;5.57;3.47;;;;;;;;;;4924162;29;20051;-54
2021/04/29 10:10:33;;;;;;;7.82;2.40;;;;;;;;;;4923213;29;20038;-53
2021/04/29 10:12:59;;;;;;;10.98;2.85;;;;;;;;;;4923099;29;20043;-56
2021/04/29 10:15:25;;;;;;;6.60;2.40;;;;;;;;;;4922106;29;20039;-51
2021/04/29 10:17:50;;;;;;;9.73;2.55;;;;;;;;;;4923510;29;20032;-55
2021/04/29 10:20:16;;;;;;;7.30;2.58;;;;;;;;;;4924157;29;20103;-52
2021/04/29 10:22:41;;;;;;;35.33;6.18;;;;;;;;;;4916426;29;20025;-55
2021/04/29 10:25:07;;;;;;;3.45;2.92;;;;;;;;;;4922856;29;20401;-57
2021/04/29 10:27:32;;;;;;;7.85;1.23;;;;;;;;;;4921004;29;20626;-55
2021/04/29 10:30:05;;;;;;;5.32;3.33;;;;;;;;;;4923394;29;20028;-55
2021/04/29 10:32:31;;;;;;;14.68;3.28;;;;;;;;;;4926368;29;20159;-53
2021/04/29 10:34:57;;;;;;;3.10;2.55;;;;;;;;;;4921959;29;20126;-54
2021/04/29 10:37:27;;;;;;;14.52;4.10;;;;;;;;;;4922824;29;20770;-54
2021/04/29 10:40:02;;;;;;;17.45;4.47;;;;;;;;;;4915438;29;20209;-51
2021/04/29 10:42:28;;;;;;;6.18;2.88;;;;;;;;;;4921898;29;20059;-52
2021/04/29 10:44:58;;;;;;;11.48;3.88;;;;;;;;;;4920669;29;20024;-56
2021/04/29 10:47:25;;;;;;;4.45;2.63;;;;;;;;;;4917799;29;20051;-55
2021/04/29 10:49:51;;;;;;;6.22;3.00;;;;;;;;;;4918415;29;20750;-53
2021/04/29 10:52:17;;;;;;;39.78;7.80;;;;;;;;;;4922678;29;20047;-56
2021/04/29 10:54:49;;;;;;;26.08;5.07;;;;;;;;;;4920431;29;20039;-56
2021/04/29 10:57:16;;;;;;;2.53;1.88;;;;;;;;;;4922021;29;20028;-53
2021/04/29 10:59:55;;;;;;;7.82;2.78;;;;;;;;;;4919172;29;20106;-55
2021/04/29 11:02:26;;;;;;;9.20;3.00;;;;;;;;;;4919001;29;20068;-56
2021/04/29 11:04:53;;;;;;;7.65;3.85;;;;;;;;;;4920088;29;20028;-56
2021/04/29 11:07:19;;;;;;;9.70;4.88;;;;;;;;;;4920490;29;20027;-55
2021/04/29 11:09:55;;;;;;;6.18;3.13;;;;;;;;;;4922736;29;20036;-54
2021/04/29 11:12:21;;;;;;;7.80;2.65;;;;;;;;;;4918814;29;20047;-58
2021/04/29 11:14:46;;;;;;;6.00;2.65;;;;;;;;;;4920313;29;20024;-58
2021/04/29 11:17:19;;;;;;;11.77;2.97;;;;;;;;;;4919190;29;20052;-58
2021/04/29 11:19:48;;;;;;;11.02;3.67;;;;;;;;;;4919945;29;20116;-62
2021/04/29 11:22:13;;;;;;;2.75;1.92;;;;;;;;;;4923459;29;20038;-58
2021/04/29 11:24:43;;;;;;;7.55;3.13;;;;;;;;;;4917639;29;20420;-58
2021/04/29 11:27:18;;;;;;;20.05;3.35;;;;;;;;;;4917363;29;20027;-58
2021/04/29 11:29:44;;;;;;;9.25;3.10;;;;;;;;;;4919002;29;20046;-58
2021/04/29 11:32:09;;;;;;;16.35;6.20;;;;;;;;;;4921281;29;20028;-57
2021/04/29 11:34:42;;;;;;;5.55;3.03;;;;;;;;;;4920332;29;20032;-58
2021/04/29 11:37:07;;;;;;;12.35;3.40;;;;;;;;;;4920149;29;20122;-58
2021/04/29 11:39:32;;;;;;;11.32;4.57;;;;;;;;;;4922111;29;20128;-58
2021/04/29 11:41:58;;;;;;;12.35;4.00;;;;;;;;;;4916552;29;20040;-58
2021/04/29 11:44:23;;;;;;;8.60;3.78;;;;;;;;;;4920945;29;20027;-58
2021/04/29 11:46:48;;;;;;;9.73;3.38;;;;;;;;;;4916973;29;20040;-58
2021/04/29 11:49:15;;;;;;;15.15;5.10;;;;;;;;;;4922128;29;20067;-59
2021/04/29 11:51:45;;;;;;;9.93;7.45;;;;;;;;;;4919223;29;20043;-58
2021/04/29 11:54:11;;;;;;;11.63;3.13;;;;;;;;;;4919861;29;20053;-58
2021/04/29 11:56:36;;;;;;;8.25;2.70;;;;;;;;;;4921052;29;20481;-58
2021/04/29 11:59:04;;;;;;;8.07;3.28;;;;;;;;;;4919663;29;20024;-58
2021/04/29 12:01:30;;;;;;;9.63;3.42;;;;;;;;;;4919566;29;20059;-56
2021/04/29 12:03:55;;;;;;;12.65;3.38;;;;;;;;;;4920523;29;20051;-58
2021/04/29 12:06:22;;;;;;;6.70;3.22;;;;;;;;;;4918047;29;20504;-57
2021/04/29 12:08:47;;;;;;;10.55;3.58;;;;;;;;;;4921478;29;20059;-56
2021/04/29 12:11:13;;;;;;;5.60;3.30;;;;;;;;;;4922416;29;20040;-57
2021/04/29 12:13:38;;;;;;;10.80;3.97;;;;;;;;;;4923548;29;20028;-57
2021/04/29 12:16:05;;;;;;;7.68;3.60;;;;;;;;;;4927636;29;20074;-56
2021/04/29 12:18:30;;;;;;;6.13;3.72;;;;;;;;;;4927290;29;20028;-56
2021/04/29 12:20:56;;;;;;;8.65;2.20;;;;;;;;;;4924437;29;20035;-56
2021/04/29 12:23:22;;;;;;;6.82;2.88;;;;;;;;;;4924687;29;20090;-57
2021/04/29 12:26:00;;;;;;;4.97;2.95;;;;;;;;;;4924825;29;20458;-56
2021/04/29 12:28:37;;;;;;;9.73;3.70;;;;;;;;;;4923826;29;20049;-56
2021/04/29 12:31:16;;;;;;;6.72;2.38;;;;;;;;;;4923266;29;20658;-57
2021/04/29 12:33:53;;;;;;;7.35;4.35;;;;;;;;;;4922095;29;20044;-56
2021/04/29 12:36:19;;;;;;;7.43;2.72;;;;;;;;;;4923246;29;20048;-54
2021/04/29 12:38:45;;;;;;;4.35;3.33;;;;;;;;;;4922133;29;20035;-57
2021/04/29 12:41:11;;;;;;;7.35;3.38;;;;;;;;;;4930492;29;20023;-57
2021/04/29 12:43:36;;;;;;;9.93;2.85;;;;;;;;;;4923658;29;20024;-56
2021/04/29 12:46:05;;;;;;;4.63;2.38;;;;;;;;;;4922658;29;20083;-56
2021/04/29 12:48:30;;;;;;;7.28;3.75;;;;;;;;;;4924352;29;20742;-57
2021/04/29 12:50:58;;;;;;;10.63;4.82;;;;;;;;;;4924974;29;20023;-57
2021/04/29 12:53:24;;;;;;;6.22;3.83;;;;;;;;;;4922417;29;20146;-56
2021/04/29 12:55:49;;;;;;;20.25;6.82;;;;;;;;;;4927290;29;20175;-59
2021/04/29 12:58:17;;;;;;;9.15;3.53;;;;;;;;;;4927321;29;20087;-59
2021/04/29 13:00:48;;;;;;;9.80;3.97;;;;;;;;;;4923196;29;20440;-59
2021/04/29 13:03:14;;;;;;;15.40;3.97;;;;;;;;;;4920941;29;20032;-59
2021/04/29 13:05:39;;;;;;;12.05;3.15;;;;;;;;;;4926065;29;20028;-59
2021/04/29 13:08:04;;;;;;;3.88;2.13;;;;;;;;;;4924158;29;20543;-59
2021/04/29 13:10:30;;;;;;;9.05;4.60;;;;;;;;;;4922266;29;20084;-59
2021/04/29 13:12:56;;;;;;;7.45;2.35;;;;;;;;;;4925476;29;20580;-59
2021/04/29 13:15:22;;;;;;;14.95;3.72;;;;;;;;;;4926538;29;20032;-59
2021/04/29 13:17:48;;;;;;;8.88;4.53;;;;;;;;;;4921397;29;20060;-60
2021/04/29 13:20:16;;;;;;;8.07;1.98;;;;;;;;;;4921662;29;20111;-59
2021/04/29 13:22:41;;;;;;;6.95;3.08;;;;;;;;;;4922377;29;20112;-59
2021/04/29 13:25:08;;;;;;;8.73;3.40;;;;;;;;;;4923935;29;20119;-59
2021/04/29 13:27:34;;;;;;;8.75;3.60;;;;;;;;;;4924126;29;20036;-60
2021/04/29 13:29:59;;;;;;;7.78;2.65;;;;;;;;;;4921636;29;20652;-59
2021/04/29 13:32:27;;;;;;;8.75;3.92;;;;;;;;;;4924939;29;20453;-59
2021/04/29 13:34:53;;;;;;;4.18;2.55;;;;;;;;;;4920883;29;20118;-60
2021/04/29 13:37:18;;;;;;;7.13;2.85;;;;;;;;;;4923148;29;20059;-59
2021/04/29 13:39:43;;;;;;;25.92;5.93;;;;;;;;;;4920416;29;20623;-59
2021/04/29 13:42:09;;;;;;;15.85;4.75;;;;;;;;;;4924019;29;20503;-59
2021/04/29 13:44:34;;;;;;;7.57;4.03;;;;;;;;;;4920196;29;20473;-59
2021/04/29 13:46:59;;;;;;;4.82;2.72;;;;;;;;;;4922066;29;21665;-62
2021/04/29 13:49:25;;;;;;;6.55;3.22;;;;;;;;;;4925935;29;20031;-59
2021/04/29 13:51:50;;;;;;;11.13;3.33;;;;;;;;;;4921605;29;20032;-58
2021/04/29 13:54:16;;;;;;;34.92;5.88;;;;;;;;;;4920830;29;20034;-58
2021/04/29 13:56:42;;;;;;;11.02;3.72;;;;;;;;;;4920816;29;20118;-59
2021/04/29 13:59:07;;;;;;;6.78;3.90;;;;;;;;;;4924816;29;20086;-58
2021/04/29 14:01:33;;;;;;;10.38;2.83;;;;;;;;;;4920840;29;20047;-57
2021/04/29 14:03:59;;;;;;;5.28;2.53;;;;;;;;;;4922176;29;20033;-58
2021/04/29 14:06:24;;;;;;;7.10;3.13;;;;;;;;;;4923570;29;20035;-58
2021/04/29 14:08:52;;;;;;;11.75;4.40;;;;;;;;;;4925681;29;20408;-59
2021/04/29 14:11:19;;;;;;;11.90;3.05;;;;;;;;;;4922143;29;20068;-59
2021/04/29 14:13:44;;;;;;;12.60;2.75;;;;;;;;;;4925683;29;20473;-59
2021/04/29 14:16:09;;;;;;;6.15;2.97;;;;;;;;;;4924463;29;20066;-59
2021/04/29 14:18:35;;;;;;;15.85;2.97;;;;;;;;;;4922478;29;20020;-59
2021/04/29 14:21:00;;;;;;;22.60;3.88;;;;;;;;;;4920486;29;20046;-59
2021/04/29 14:23:26;;;;;;;6.88;2.65;;;;;;;;;;4919186;29;20461;-59
2021/04/29 14:25:51;;;;;;;5.35;4.10;;;;;;;;;;4917796;29;20035;-60
2021/04/29 14:28:16;;;;;;;7.40;4.07;;;;;;;;;;4926123;29;20062;-58
2021/04/29 14:30:42;;;;;;;6.88;1.98;;;;;;;;;;4920888;29;20024;-55
2021/04/29 14:33:07;;;;;;;20.30;5.13;;;;;;;;;;4919338;29;20142;-59
2021/04/29 14:35:33;;;;;;;4.38;2.55;;;;;;;;;;4919772;29;20036;-59